Terminal Aerodrome Forecast
Issued by NWS

Home | Current Version | Previous Version | Text Only | Print | Product List | Glossary On
Versions: 1 2 3 4 5 6 7 8 9 10 11 12 13 14 15 16 17 18 19 20 21 22 23 24
065
FTUS46 KSGX 202039 CCA
TAFSAN
TAF COR
KSAN 202039Z 2021/2124 18022G32KT 3SM RA BR VCTS SCT008 OVC025CB
      TEMPO 2022/2024 VRB25G45KT 1SM +TSRA OVC008CB
     FM210100 25022G32KT 3SM RA BR VCTS SCT008 OVC020CB
      TEMPO 2101/2102 VRB25G45KT 1SM +TSRA OVC008CB
     FM210400 28020G30KT 3SM SHRA BR BKN015
     FM210700 27018G28KT 6SM -SHRA BR BKN025
     FM211000 28013G25KT P6SM VCSH SCT025 OVC150
     FM211500 28012G18KT P6SM VCSH SCT025=

USA.gov is the U.S. government's official web portal to all federal, state and local government web resources and services.